AYNZ

Lae Nadzab Airport

Nadzab, Papua New Guinea

AYNZ 250600Z 09008KT 9999 FEW020 BKN280 31/22 Q1007 RMK: HZ

Observed Flight Rules
Sep-25 @ 06:00 UTC (2 hours ago)
 
Visual Flight Rules
Wind Visibility Clouds
90° at 8 knots 10,000+ meters
  • Few at 2,000' AGL
  • Broken at 28,000' AGL
Temperatures Readings
Current 31°C / 88°F
Dewpoint 22°C / 72°F
Humidity 59%
Altimeter 29.73" Hg
Pressure 1007 hPa
Elevation 70
Observed Flight Rules
Sep-25 @ 06:00 UTC
(2 hours ago)
 
VFR
Wind Visibility
90° at 8 knots 10,000+ meters
Clouds
  • Few at 2,000' AGL
  • Broken at 28,000' AGL
Temperature Dewpoint
31°C / 88°F 22°C / 72°F
Humidity Altimeter Pressure
59% 29.73" Hg 1007 hPa